createdAt,value
2018-01-22T00:00:45.011Z,99746
2018-01-22T00:01:45.092Z,99745
2018-01-22T00:02:44.031Z,99742
2018-01-22T00:03:45.146Z,99746
2018-01-22T00:04:44.099Z,99749
2018-01-22T00:05:44.211Z,99741
2018-01-22T00:06:45.198Z,99761
2018-01-22T00:07:44.396Z,99766
2018-01-22T00:08:44.419Z,99769
2018-01-22T00:09:44.355Z,99769
2018-01-22T00:10:45.358Z,99762
2018-01-22T00:11:44.416Z,99754
2018-01-22T00:12:44.618Z,99767
2018-01-22T00:13:44.706Z,99766
2018-01-22T00:14:45.680Z,99765
2018-01-22T00:15:44.620Z,99752
2018-01-22T00:16:44.690Z,99761
2018-01-22T00:17:44.820Z,99763
2018-01-22T00:18:45.742Z,99754
2018-01-22T00:19:44.823Z,99757
2018-01-22T00:20:45.782Z,99757
2018-01-22T00:21:44.926Z,99738
2018-01-22T00:22:44.852Z,99747
2018-01-22T00:23:45.933Z,99743
2018-01-22T00:24:45.913Z,99737
2018-01-22T00:25:45.136Z,99724
2018-01-22T00:26:46.200Z,99734
2018-01-22T00:27:45.256Z,99730
2018-01-22T00:28:45.279Z,99722
2018-01-22T00:29:46.231Z,99712
2018-01-22T00:30:46.352Z,99688
2018-01-22T00:31:45.454Z,99693
2018-01-22T00:32:45.394Z,99690
2018-01-22T00:33:45.395Z,99693
2018-01-22T00:34:45.551Z,99672
2018-01-22T00:35:46.553Z,99680
2018-01-22T00:36:46.571Z,99681
2018-01-22T00:37:46.648Z,99677
2018-01-22T00:38:45.696Z,99673
2018-01-22T00:39:46.774Z,99670
2018-01-22T00:40:45.787Z,99661
2018-01-22T00:41:45.780Z,99657
2018-01-22T00:42:45.969Z,99650
2018-01-22T00:43:47.017Z,99650
2018-01-22T00:44:45.942Z,99646
2018-01-22T00:45:47.102Z,99648
2018-01-22T00:46:46.034Z,99654
2018-01-22T00:47:46.181Z,99636
2018-01-22T00:48:47.039Z,99649
2018-01-22T00:49:47.200Z,99655
2018-01-22T00:50:46.311Z,99660
2018-01-22T00:51:47.301Z,99653
2018-01-22T00:52:46.347Z,99648
2018-01-22T00:53:47.224Z,99641
2018-01-22T00:54:46.279Z,99643
2018-01-22T00:55:47.233Z,99649
2018-01-22T00:56:46.278Z,99648
2018-01-22T00:57:47.401Z,99643
2018-01-22T00:58:46.393Z,99644
2018-01-22T00:59:47.394Z,99644
2018-01-22T01:00:46.481Z,99643
2018-01-22T01:01:47.605Z,99647
2018-01-22T01:02:47.520Z,99645
2018-01-22T01:03:47.642Z,99640
2018-01-22T01:04:46.640Z,99633
2018-01-22T01:05:46.763Z,99626
2018-01-22T01:06:46.842Z,99608
2018-01-22T01:07:47.835Z,99616
2018-01-22T01:08:46.792Z,99610
2018-01-22T01:09:46.961Z,99608
2018-01-22T01:10:46.939Z,99593
2018-01-22T01:11:47.148Z,99603
2018-01-22T01:12:47.048Z,99592
2018-01-22T01:13:48.027Z,99572
2018-01-22T01:14:47.261Z,99574
2018-01-22T01:15:47.254Z,99576
2018-01-22T01:16:48.427Z,99564
2018-01-22T01:17:47.405Z,99573
2018-01-22T01:18:48.538Z,99572
2018-01-22T01:19:48.570Z,99555
2018-01-22T01:20:48.549Z,99560
2018-01-22T01:21:47.620Z,99555
2018-01-22T01:22:47.663Z,99548
2018-01-22T01:23:47.805Z,99548
2018-01-22T01:24:48.824Z,99553
2018-01-22T01:25:48.844Z,99550
2018-01-22T01:26:48.800Z,99551
2018-01-22T01:27:47.903Z,99549
2018-01-22T01:28:48.916Z,99544
2018-01-22T01:29:48.016Z,99549
2018-01-22T01:30:48.194Z,99546
2018-01-22T01:31:48.085Z,99549
2018-01-22T01:32:49.066Z,99546
2018-01-22T01:33:48.134Z,99553
2018-01-22T01:34:48.144Z,99543
2018-01-22T01:35:49.273Z,99547
2018-01-22T01:36:48.394Z,99550
2018-01-22T01:37:49.443Z,99538
2018-01-22T01:38:48.448Z,99544
2018-01-22T01:39:48.600Z,99548
2018-01-22T01:40:48.545Z,99548
2018-01-22T01:41:48.597Z,99542
2018-01-22T01:42:49.565Z,99543
2018-01-22T01:43:48.597Z,99538
2018-01-22T01:44:49.603Z,99535
2018-01-22T01:45:49.723Z,99516
2018-01-22T01:46:49.695Z,99524
2018-01-22T01:47:48.799Z,99518
2018-01-22T01:48:48.942Z,99510
2018-01-22T01:49:48.936Z,99517
2018-01-22T01:50:50.030Z,99519
2018-01-22T01:51:49.129Z,99516
2018-01-22T01:52:49.170Z,99503
2018-01-22T01:53:49.073Z,99517
2018-01-22T01:54:49.188Z,99516
2018-01-22T01:55:49.170Z,99507
2018-01-22T01:56:50.279Z,99514
2018-01-22T01:57:49.252Z,99506
2018-01-22T01:58:49.200Z,99498
2018-01-22T01:59:49.300Z,99504
2018-01-22T02:00:50.283Z,99505
2018-01-22T02:01:49.396Z,99503
2018-01-22T02:02:50.442Z,99501
2018-01-22T02:03:49.540Z,99500
2018-01-22T02:04:49.705Z,99497
2018-01-22T02:05:49.803Z,99490
2018-01-22T02:06:49.891Z,99497
2018-01-22T02:07:49.855Z,99479
2018-01-22T02:08:50.037Z,99489
2018-01-22T02:09:50.109Z,99489
2018-01-22T02:10:50.044Z,99489
2018-01-22T02:11:50.077Z,99470
2018-01-22T02:12:50.238Z,99488
2018-01-22T02:13:50.328Z,99484
2018-01-22T02:14:51.253Z,99482
2018-01-22T02:15:51.339Z,99481
2018-01-22T02:16:51.340Z,99481
2018-01-22T02:17:50.406Z,99474
2018-01-22T02:18:50.514Z,99481
2018-01-22T02:19:50.413Z,99479
2018-01-22T02:20:50.482Z,99461
2018-01-22T02:21:51.553Z,99467
2018-01-22T02:22:50.611Z,99467
2018-01-22T02:23:50.515Z,99448
2018-01-22T02:24:50.598Z,99461
2018-01-22T02:25:50.717Z,99454
2018-01-22T02:26:50.764Z,99446
2018-01-22T02:27:50.682Z,99451
2018-01-22T02:28:50.789Z,99449
2018-01-22T02:29:50.881Z,99454
2018-01-22T02:30:50.886Z,99450
2018-01-22T02:31:50.824Z,99452
2018-01-22T02:32:50.887Z,99450
2018-01-22T02:33:50.963Z,99450
2018-01-22T02:34:51.945Z,99445
2018-01-22T02:35:51.163Z,99445
2018-01-22T02:36:52.152Z,99443
2018-01-22T02:37:51.155Z,99440
2018-01-22T02:38:52.300Z,99435
2018-01-22T02:39:52.192Z,99433
2018-01-22T02:40:52.367Z,99432
2018-01-22T02:41:52.454Z,99430
2018-01-22T02:42:52.379Z,99430
2018-01-22T02:43:51.499Z,99428
2018-01-22T02:44:52.543Z,99424
2018-01-22T02:45:51.654Z,99421
2018-01-22T02:46:51.822Z,99425
2018-01-22T02:47:51.772Z,99422
2018-01-22T02:48:52.931Z,99420
2018-01-22T02:49:52.823Z,99418
2018-01-22T02:50:53.043Z,99413
2018-01-22T02:51:51.973Z,99415
2018-01-22T02:52:51.983Z,99415
2018-01-22T02:53:52.042Z,99406
2018-01-22T02:54:53.081Z,99412
2018-01-22T02:55:52.127Z,99412
2018-01-22T02:56:52.310Z,99418
2018-01-22T02:57:52.322Z,99416
2018-01-22T02:58:53.322Z,99413
2018-01-22T02:59:53.328Z,99415
2018-01-22T03:00:53.493Z,99400
2018-01-22T03:01:52.420Z,99406
2018-01-22T03:02:52.525Z,99401
2018-01-22T03:03:52.558Z,99401
2018-01-22T03:04:52.629Z,99397
2018-01-22T03:05:52.690Z,99390
2018-01-22T03:06:53.772Z,99383
2018-01-22T03:07:52.803Z,99373
2018-01-22T03:08:52.844Z,99372
2018-01-22T03:09:53.819Z,99370
2018-01-22T03:10:53.041Z,99365
2018-01-22T03:11:54.022Z,99358
2018-01-22T03:12:54.084Z,99354
2018-01-22T03:13:54.255Z,99350
2018-01-22T03:14:53.274Z,99352
2018-01-22T03:15:53.387Z,99355
2018-01-22T03:16:53.568Z,99352
2018-01-22T03:17:54.557Z,99342
2018-01-22T03:18:54.523Z,99356
2018-01-22T03:19:54.719Z,99358
2018-01-22T03:20:53.787Z,99361
2018-01-22T03:21:53.895Z,99361
2018-01-22T03:22:53.868Z,99360
2018-01-22T03:23:53.970Z,99363
2018-01-22T03:24:54.029Z,99346
2018-01-22T03:25:55.047Z,99357
2018-01-22T03:26:55.119Z,99353
2018-01-22T03:27:54.140Z,99358
2018-01-22T03:28:54.177Z,99360
2018-01-22T03:29:55.306Z,99354
2018-01-22T03:30:54.372Z,99351
2018-01-22T03:31:54.322Z,99353
2018-01-22T03:32:55.497Z,99351
2018-01-22T03:33:54.496Z,99343
2018-01-22T03:34:54.535Z,99343
2018-01-22T03:35:54.703Z,99343
2018-01-22T03:36:54.738Z,99332
2018-01-22T03:37:54.684Z,99343
2018-01-22T03:38:54.863Z,99333
2018-01-22T03:39:55.925Z,99332
2018-01-22T03:40:55.951Z,99328
2018-01-22T03:41:54.905Z,99331
2018-01-22T03:42:55.084Z,99336
2018-01-22T03:43:54.973Z,99333
2018-01-22T03:44:56.062Z,99333
2018-01-22T03:45:56.145Z,99330
2018-01-22T03:46:56.106Z,99332
2018-01-22T03:47:55.281Z,99320
2018-01-22T03:48:56.273Z,99329
2018-01-22T03:49:55.225Z,99331
2018-01-22T03:50:55.393Z,99328
2018-01-22T03:51:56.297Z,99340
2018-01-22T03:52:56.416Z,99332
2018-01-22T03:53:55.411Z,99333
2018-01-22T03:54:55.455Z,99331
2018-01-22T03:55:55.538Z,99330
2018-01-22T03:56:55.494Z,99319
2018-01-22T03:57:55.585Z,99329
2018-01-22T03:58:55.716Z,99331
2018-01-22T03:59:56.703Z,99315
2018-01-22T04:00:55.765Z,99327
2018-01-22T04:01:56.847Z,99331
2018-01-22T04:02:56.877Z,99332
2018-01-22T04:03:55.894Z,99336
2018-01-22T04:04:55.925Z,99336
2018-01-22T04:05:56.949Z,99328
2018-01-22T04:06:56.116Z,99332
2018-01-22T04:07:56.082Z,99329
2018-01-22T04:08:56.185Z,99328
2018-01-22T04:09:57.316Z,99322
2018-01-22T04:10:56.256Z,99310
2018-01-22T04:11:57.358Z,99319
2018-01-22T04:12:56.405Z,99315
2018-01-22T04:13:56.438Z,99310
2018-01-22T04:14:56.551Z,99300
2018-01-22T04:15:56.620Z,99299
2018-01-22T04:16:57.595Z,99305
2018-01-22T04:17:56.552Z,99304
2018-01-22T04:18:56.642Z,99306
2018-01-22T04:19:56.683Z,99306
2018-01-22T04:20:56.725Z,99310
2018-01-22T04:21:57.868Z,99317
2018-01-22T04:22:57.927Z,99322
2018-01-22T04:23:57.948Z,99326
2018-01-22T04:24:57.929Z,99319
2018-01-22T04:25:56.953Z,99322
2018-01-22T04:26:58.121Z,99319
2018-01-22T04:27:57.172Z,99317
2018-01-22T04:28:57.174Z,99311
2018-01-22T04:29:57.177Z,99316
2018-01-22T04:30:58.177Z,99315
2018-01-22T04:31:58.345Z,99312
2018-01-22T04:32:58.417Z,99309
2018-01-22T04:33:58.449Z,99307
2018-01-22T04:34:57.405Z,99302
2018-01-22T04:35:58.474Z,99304
2018-01-22T04:36:57.517Z,99299
2018-01-22T04:37:57.494Z,99296
2018-01-22T04:38:58.661Z,99290
2018-01-22T04:39:58.640Z,99295
2018-01-22T04:40:57.735Z,99295
2018-01-22T04:41:57.929Z,99289
2018-01-22T04:42:58.020Z,99295
2018-01-22T04:43:58.101Z,99281
2018-01-22T04:44:58.973Z,99286
2018-01-22T04:45:59.156Z,99284
2018-01-22T04:46:58.189Z,99288
2018-01-22T04:47:58.279Z,99281
2018-01-22T04:48:58.251Z,99274
2018-01-22T04:49:58.290Z,99275
2018-01-22T04:50:58.281Z,99264
2018-01-22T04:51:59.256Z,99274
2018-01-22T04:52:59.388Z,99274
2018-01-22T04:53:58.307Z,99276
2018-01-22T04:54:58.482Z,99271
2018-01-22T04:55:59.409Z,99272
2018-01-22T04:56:59.574Z,99265
2018-01-22T04:57:58.643Z,99268
2018-01-22T04:58:58.601Z,99258
2018-01-22T04:59:59.722Z,99263
2018-01-22T05:00:59.752Z,99266
2018-01-22T05:01:59.698Z,99256
2018-01-22T05:02:58.791Z,99251
2018-01-22T05:03:58.890Z,99246
2018-01-22T05:04:58.994Z,99239
2018-01-22T05:06:00.116Z,99227
2018-01-22T05:06:59.989Z,99228
2018-01-22T05:07:59.191Z,99223
2018-01-22T05:08:59.085Z,99222
2018-01-22T05:09:59.130Z,99223
2018-01-22T05:11:00.151Z,99206
2018-01-22T05:12:00.290Z,99211
2018-01-22T05:12:59.209Z,99212
2018-01-22T05:14:00.376Z,99213
2018-01-22T05:15:00.490Z,99210
2018-01-22T05:16:00.411Z,99217
2018-01-22T05:16:59.518Z,99204
2018-01-22T05:17:59.701Z,99216
2018-01-22T05:19:00.501Z,99216
2018-01-22T05:19:59.704Z,99218
2018-01-22T05:21:00.867Z,99216
2018-01-22T05:21:59.761Z,99219
2018-01-22T05:22:59.858Z,99223
2018-01-22T05:23:59.826Z,99218
2018-01-22T05:25:00.502Z,99224
2018-01-22T05:25:59.961Z,99206
2018-01-22T05:27:00.110Z,99198
2018-01-22T05:28:00.152Z,99200
2018-01-22T05:29:01.086Z,99199
2018-01-22T05:30:00.532Z,99206
2018-01-22T05:31:00.417Z,99187
2018-01-22T05:32:00.192Z,99218
2018-01-22T05:33:00.326Z,99199
2018-01-22T05:34:01.246Z,99200
2018-01-22T05:35:01.358Z,99201
2018-01-22T05:36:00.396Z,99201
2018-01-22T05:37:01.461Z,99186
2018-01-22T05:38:01.590Z,99198
2018-01-22T05:39:01.466Z,99185
2018-01-22T05:40:01.606Z,99198
2018-01-22T05:41:01.697Z,99196
2018-01-22T05:42:00.637Z,99195
2018-01-22T05:43:01.797Z,99197
2018-01-22T05:44:02.463Z,99197
2018-01-22T05:45:01.593Z,99187
2018-01-22T05:46:01.716Z,99199
2018-01-22T05:47:00.965Z,99199
2018-01-22T05:48:02.100Z,99205
2018-01-22T05:49:02.188Z,99202
2018-01-22T05:50:02.802Z,99201
2018-01-22T05:51:01.863Z,99200
2018-01-22T05:52:02.367Z,99205
2018-01-22T05:53:01.331Z,99198
2018-01-22T05:54:01.407Z,99201
2018-01-22T05:55:01.603Z,99198
2018-01-22T06:02:48.463Z,99184
2018-01-22T06:03:48.527Z,99198
2018-01-22T06:04:48.468Z,99196
2018-01-22T06:05:48.595Z,99195
2018-01-22T06:06:49.626Z,99190
2018-01-22T06:07:48.579Z,99197
2018-01-22T06:08:49.672Z,99209
2018-01-22T06:09:55.688Z,99193
2018-01-22T06:10:54.113Z,99201
2018-01-22T06:11:53.683Z,99198
2018-01-22T06:12:53.838Z,99202
2018-01-22T06:13:50.024Z,99203
2018-01-22T06:14:49.003Z,99206
2018-01-22T06:15:54.315Z,99208
2018-01-22T06:16:55.672Z,99219
2018-01-22T06:17:52.134Z,99219
2018-01-22T06:18:49.086Z,99221
2018-01-22T06:19:49.151Z,99226
2018-01-22T06:20:50.111Z,99221
2018-01-22T06:21:50.321Z,99219
2018-01-22T06:22:49.457Z,99233
2018-01-22T06:23:49.467Z,99233
2018-01-22T06:24:50.525Z,99233
2018-01-22T06:25:50.111Z,99222
2018-01-22T06:26:49.479Z,99230
2018-01-22T06:27:49.605Z,99229
2018-01-22T06:28:49.502Z,99218
2018-01-22T06:29:49.668Z,99225
2018-01-22T06:30:50.610Z,99217
2018-01-22T06:31:49.693Z,99218
2018-01-22T06:32:49.663Z,99216
2018-01-22T06:33:49.753Z,99216
2018-01-22T06:34:50.848Z,99213
2018-01-22T06:35:49.923Z,99210
2018-01-22T06:36:49.847Z,99206
2018-01-22T06:37:50.022Z,99207
2018-01-22T06:38:50.068Z,99211
2018-01-22T06:39:50.033Z,99214
2018-01-22T06:40:51.107Z,99211
2018-01-22T06:41:50.128Z,99219
2018-01-22T06:42:50.217Z,99212
2018-01-22T06:43:51.289Z,99209
2018-01-22T06:44:51.310Z,99207
2018-01-22T06:45:51.376Z,99208
2018-01-22T06:46:50.336Z,99207
2018-01-22T06:47:50.464Z,99206
2018-01-22T06:48:51.611Z,99217
2018-01-22T06:49:50.536Z,99216
2018-01-22T06:50:51.691Z,99209
2018-01-22T06:51:51.775Z,99221
2018-01-22T06:52:51.656Z,99222
2018-01-22T06:53:51.668Z,99216
2018-01-22T06:54:50.792Z,99195
2018-01-22T06:55:50.892Z,99217
2018-01-22T06:56:50.913Z,99214
2018-01-22T06:57:51.925Z,99213
2018-01-22T06:58:50.865Z,99205
2018-01-22T06:59:52.036Z,99220
2018-01-22T07:00:51.030Z,99227
2018-01-22T07:01:51.107Z,99228
2018-01-22T07:02:51.282Z,99212
2018-01-22T07:03:52.180Z,99216
2018-01-22T07:04:52.364Z,99217
2018-01-22T07:05:52.372Z,99221
2018-01-22T07:06:51.515Z,99220
2018-01-22T07:07:51.404Z,99231
2018-01-22T07:08:51.430Z,99233
2018-01-22T07:09:52.596Z,99238
2018-01-22T07:10:51.664Z,99217
2018-01-22T07:11:52.735Z,99228
2018-01-22T07:12:51.821Z,99229
2018-01-22T07:13:51.936Z,99234
2018-01-22T07:14:51.927Z,99243
2018-01-22T07:15:52.854Z,99238
2018-01-22T07:16:51.960Z,99232
2018-01-22T07:17:52.150Z,99240
2018-01-22T07:18:53.022Z,99239
2018-01-22T07:19:52.262Z,99246
2018-01-22T07:20:52.208Z,99241
2018-01-22T07:21:53.281Z,99252
2018-01-22T07:22:52.516Z,99254
2018-01-22T07:23:52.449Z,99246
2018-01-22T07:24:52.518Z,99248
2018-01-22T07:25:53.630Z,99239
2018-01-22T07:26:52.870Z,99244
2018-01-22T07:27:52.642Z,99235
2018-01-22T07:28:52.663Z,99238
2018-01-22T07:29:53.723Z,99238
2018-01-22T07:30:52.860Z,99231
2018-01-22T07:31:52.816Z,99235
2018-01-22T07:32:52.842Z,99231
2018-01-22T07:33:52.913Z,99226
2018-01-22T07:34:53.918Z,99229
2018-01-22T07:35:53.059Z,99232
2018-01-22T07:36:54.081Z,99235
2018-01-22T07:37:54.079Z,99235
2018-01-22T07:38:53.115Z,99245
2018-01-22T07:39:54.187Z,99244
2018-01-22T07:40:53.301Z,99236
2018-01-22T07:41:53.364Z,99244
2018-01-22T07:42:54.528Z,99234
2018-01-22T07:43:53.627Z,99254
2018-01-22T07:44:54.578Z,99259
2018-01-22T07:45:53.533Z,99262
2018-01-22T07:46:54.717Z,99255
2018-01-22T07:47:54.755Z,99256
2018-01-22T07:48:53.767Z,99253
2018-01-22T07:49:53.981Z,99259
2018-01-22T07:50:55.069Z,99261
2018-01-22T07:51:54.198Z,99257
2018-01-22T07:52:54.140Z,99257
2018-01-22T07:53:55.174Z,99254
2018-01-22T07:54:54.112Z,99257
2018-01-22T07:55:55.184Z,99262
2018-01-22T07:56:54.152Z,99261
2018-01-22T07:57:54.219Z,99257
2018-01-22T07:58:54.306Z,99261
2018-01-22T07:59:54.446Z,99264
2018-01-22T08:00:54.356Z,99256
2018-01-22T08:01:54.373Z,99282
2018-01-22T08:02:54.468Z,99274
2018-01-22T08:03:55.615Z,99270
2018-01-22T08:04:56.282Z,99271
2018-01-22T08:05:54.580Z,99272
2018-01-22T08:06:55.672Z,99269
2018-01-22T08:07:54.601Z,99268
2018-01-22T08:08:54.621Z,99258
2018-01-22T08:09:54.800Z,99270
2018-01-22T08:10:54.932Z,99271
2018-01-22T08:11:54.973Z,99261
2018-01-22T08:12:54.825Z,99273
2018-01-22T08:13:55.932Z,99267
2018-01-22T08:14:56.007Z,99266
2018-01-22T08:15:54.997Z,99269
2018-01-22T08:16:56.087Z,99265
2018-01-22T08:17:56.091Z,99262
2018-01-22T08:18:56.069Z,99276
2018-01-22T08:19:55.290Z,99273
2018-01-22T08:20:55.383Z,99264
2018-01-22T08:21:55.293Z,99264
2018-01-22T08:22:56.261Z,99268
2018-01-22T08:23:56.408Z,99264
2018-01-22T08:24:55.378Z,99258
2018-01-22T08:25:56.660Z,99257
2018-01-22T08:26:55.664Z,99272
2018-01-22T08:27:55.725Z,99237
2018-01-22T08:28:55.783Z,99247
2018-01-22T08:29:56.419Z,99250
2018-01-22T08:30:55.804Z,99243
2018-01-22T08:31:56.442Z,99248
2018-01-22T08:32:56.809Z,99252
2018-01-22T08:33:55.861Z,99251
2018-01-22T08:34:56.991Z,99256
2018-01-22T08:35:56.021Z,99258
2018-01-22T08:36:56.037Z,99259
2018-01-22T08:37:57.073Z,99261
2018-01-22T08:38:57.273Z,99266
2018-01-22T08:39:57.336Z,99266
2018-01-22T08:40:56.308Z,99271
2018-01-22T08:41:57.115Z,99257
2018-01-22T08:42:57.490Z,99266
2018-01-22T08:43:56.526Z,99264
2018-01-22T08:44:56.589Z,99265
2018-01-22T08:45:57.614Z,99263
2018-01-22T08:46:57.538Z,99262
2018-01-22T08:47:57.652Z,99257
2018-01-22T08:48:57.828Z,99269
2018-01-22T08:49:57.834Z,99278
2018-01-22T08:50:57.819Z,99262
2018-01-22T08:51:56.905Z,99272
2018-01-22T08:52:57.874Z,99275
2018-01-22T08:53:56.930Z,99279
2018-01-22T08:54:58.087Z,99280
2018-01-22T08:55:58.023Z,99278
2018-01-22T08:56:58.033Z,99278
2018-01-22T08:57:57.187Z,99283
2018-01-22T08:58:57.168Z,99288
2018-01-22T08:59:57.207Z,99281
2018-01-22T09:00:58.304Z,99285
2018-01-22T09:01:57.399Z,99288
2018-01-22T09:02:57.345Z,99295
2018-01-22T09:03:59.197Z,99297
2018-01-22T09:04:57.581Z,99293
2018-01-22T09:05:57.656Z,99307
2018-01-22T09:06:57.732Z,99291
2018-01-22T09:07:57.680Z,99291
2018-01-22T09:08:58.820Z,99285
2018-01-22T09:09:59.567Z,99292
2018-01-22T09:10:58.990Z,99292
2018-01-22T09:11:57.895Z,99298
2018-01-22T09:13:00.067Z,99288
2018-01-22T09:13:59.168Z,99296
2018-01-22T09:14:58.954Z,99288
2018-01-22T09:15:58.387Z,99289
2018-01-22T09:16:58.089Z,99293
2018-01-22T09:17:58.449Z,99300
2018-01-22T09:18:58.326Z,99291
2018-01-22T09:19:59.403Z,99292
2018-01-22T09:20:58.472Z,99291
2018-01-22T09:21:58.556Z,99309
2018-01-22T09:22:59.172Z,99301
2018-01-22T09:23:58.827Z,99308
2018-01-22T09:24:59.085Z,99315
2018-01-22T09:25:58.704Z,99223
2018-01-22T09:26:58.718Z,99300
2018-01-22T09:27:59.731Z,99307
2018-01-22T09:29:00.337Z,99317
2018-01-22T09:29:59.005Z,99317
2018-01-22T09:30:59.099Z,99330
2018-01-22T09:31:59.122Z,99310
2018-01-22T09:32:59.014Z,99319
2018-01-22T09:33:59.239Z,99327
2018-01-22T09:34:59.311Z,99336
2018-01-22T09:36:00.192Z,99337
2018-01-22T09:37:01.603Z,99341
2018-01-22T09:37:59.393Z,99340
2018-01-22T09:39:00.557Z,99340
2018-01-22T09:40:00.376Z,99347
2018-01-22T09:41:00.317Z,99349
2018-01-22T09:41:59.413Z,99345
2018-01-22T09:42:59.506Z,99350
2018-01-22T09:44:00.713Z,99347
2018-01-22T09:44:59.733Z,99345
2018-01-22T09:45:59.719Z,99351
2018-01-22T09:46:59.917Z,99352
2018-01-22T09:48:00.977Z,99348
2018-01-22T09:49:01.037Z,99334
2018-01-22T09:50:01.906Z,99344
2018-01-22T09:51:01.163Z,99347
2018-01-22T09:52:00.140Z,99346
2018-01-22T09:54:01.911Z,99344
2018-01-22T09:55:00.240Z,99346
2018-01-22T09:56:02.039Z,99349
2018-01-22T09:57:00.361Z,99339
2018-01-22T09:58:01.190Z,99350
2018-01-22T09:59:00.597Z,99343
2018-01-22T10:00:01.684Z,99342
2018-01-22T10:01:03.055Z,99330
2018-01-22T10:02:00.714Z,99340
2018-01-22T10:03:01.349Z,99347
2018-01-22T10:04:01.276Z,99345
2018-01-22T10:05:01.768Z,99348
2018-01-22T10:06:02.560Z,99346
2018-01-22T10:07:01.456Z,99338
2018-01-22T10:08:01.441Z,99340
2018-01-22T10:09:02.077Z,99340
2018-01-22T10:10:01.600Z,99343
2018-01-22T10:11:01.135Z,99349
2018-01-22T10:12:01.125Z,99339
2018-01-22T10:13:02.337Z,99347
2018-01-22T10:14:01.172Z,99349
2018-01-22T10:15:02.981Z,99352
2018-01-22T10:16:02.299Z,99354
2018-01-22T10:17:01.513Z,99358
2018-01-22T10:18:01.364Z,99359
2018-01-22T10:19:01.360Z,99363
2018-01-22T10:20:01.563Z,99356
2018-01-22T10:21:01.551Z,99367
2018-01-22T10:22:02.789Z,99370
2018-01-22T10:23:02.011Z,99361
2018-01-22T10:24:01.779Z,99364
2018-01-22T10:25:01.819Z,99373
2018-01-22T10:26:02.980Z,99372
2018-01-22T10:27:01.901Z,99378
2018-01-22T10:28:01.910Z,99379
2018-01-22T10:29:02.769Z,99376
2018-01-22T10:30:01.844Z,99380
2018-01-22T10:31:02.289Z,99384
2018-01-22T10:32:03.079Z,99384
2018-01-22T10:33:02.098Z,99387
2018-01-22T10:34:02.918Z,99379
2018-01-22T10:35:02.629Z,99380
2018-01-22T10:36:03.957Z,99382
2018-01-22T10:37:03.530Z,99390
2018-01-22T10:38:02.354Z,99388
2018-01-22T10:39:03.290Z,99382
2018-01-22T10:40:02.422Z,99389
2018-01-22T10:41:03.634Z,99390
2018-01-22T10:42:02.494Z,99390
2018-01-22T10:43:03.615Z,99389
2018-01-22T10:44:03.994Z,99389
2018-01-22T10:45:02.669Z,99387
2018-01-22T10:46:02.755Z,99383
2018-01-22T10:47:02.841Z,99375
2018-01-22T10:48:02.873Z,99384
2018-01-22T10:49:02.752Z,99385
2018-01-22T10:50:03.912Z,99376
2018-01-22T10:51:02.959Z,99378
2018-01-22T10:52:03.805Z,99383
2018-01-22T10:53:04.483Z,99384
2018-01-22T10:54:02.927Z,99394
2018-01-22T10:55:03.885Z,99374
2018-01-22T10:56:03.073Z,99374
2018-01-22T10:57:03.029Z,99382
2018-01-22T10:58:03.150Z,99379
2018-01-22T10:59:03.119Z,99373
2018-01-22T11:00:03.318Z,99379
2018-01-22T11:01:03.440Z,99374
2018-01-22T11:02:03.384Z,99379
2018-01-22T11:03:03.419Z,99377
2018-01-22T11:04:03.339Z,99378
2018-01-22T11:05:04.382Z,99382
2018-01-22T11:06:03.374Z,99375
2018-01-22T11:07:03.553Z,99378
2018-01-22T11:08:04.482Z,99375
2018-01-22T11:09:03.756Z,99376
2018-01-22T11:10:03.708Z,99364
2018-01-22T11:11:04.814Z,99364
2018-01-22T11:12:04.767Z,99383
2018-01-22T11:13:04.789Z,99370
2018-01-22T11:14:03.830Z,99367
2018-01-22T11:15:04.986Z,99367
2018-01-22T11:16:05.760Z,99359
2018-01-22T11:17:07.304Z,99371
2018-01-22T11:18:05.088Z,99366
2018-01-22T11:19:05.138Z,99365
2018-01-22T11:20:05.075Z,99370
2018-01-22T11:21:04.204Z,99364
2018-01-22T11:22:05.294Z,99367
2018-01-22T11:23:05.276Z,99362
2018-01-22T11:24:05.430Z,99365
2018-01-22T11:25:04.388Z,99373
2018-01-22T11:26:04.462Z,99381
2018-01-22T11:27:04.601Z,99384
2018-01-22T11:28:05.843Z,99386
2018-01-22T11:29:04.508Z,99387
2018-01-22T11:30:04.772Z,99383
2018-01-22T11:31:05.839Z,99398
2018-01-22T11:32:04.677Z,99385
2018-01-22T11:33:05.966Z,99380
2018-01-22T11:34:04.800Z,99387
2018-01-22T11:35:05.969Z,99373
2018-01-22T11:36:04.911Z,99382
2018-01-22T11:37:04.932Z,99386
2018-01-22T11:38:05.988Z,99375
2018-01-22T11:39:06.129Z,99377
2018-01-22T11:40:06.092Z,99378
2018-01-22T11:41:06.308Z,99372
2018-01-22T11:42:06.418Z,99375
2018-01-22T11:43:05.277Z,99378
2018-01-22T11:44:06.238Z,99369
2018-01-22T11:45:06.631Z,99376
2018-01-22T11:46:05.660Z,99375
2018-01-22T11:47:05.577Z,99377
2018-01-22T11:48:05.874Z,99378
2018-01-22T11:49:07.002Z,99376
2018-01-22T11:50:06.073Z,99371
2018-01-22T11:51:06.943Z,99373
2018-01-22T11:52:05.703Z,99374
2018-01-22T11:53:05.755Z,99363
2018-01-22T11:54:05.781Z,99368
2018-01-22T11:55:05.884Z,99363
2018-01-22T11:56:05.842Z,99373
2018-01-22T11:57:07.038Z,99376
2018-01-22T11:58:06.053Z,99374
2018-01-22T11:59:06.273Z,99368
2018-01-22T12:00:07.785Z,99374
2018-01-22T12:01:07.181Z,99379
2018-01-22T12:02:06.332Z,99373
2018-01-22T12:03:06.554Z,99385
2018-01-22T12:04:06.364Z,99388
2018-01-22T12:05:06.503Z,99392
2018-01-22T12:06:07.506Z,99387
2018-01-22T12:07:06.684Z,99400
2018-01-22T12:08:06.765Z,99402
2018-01-22T12:09:07.694Z,99401
2018-01-22T12:10:07.706Z,99403
2018-01-22T12:11:06.834Z,99410
2018-01-22T12:12:06.738Z,99403
2018-01-22T12:13:06.869Z,99394
2018-01-22T12:14:06.969Z,99407
2018-01-22T12:15:06.869Z,99406
2018-01-22T12:16:06.990Z,99399
2018-01-22T12:17:08.113Z,99409
2018-01-22T12:18:07.147Z,99407
2018-01-22T12:19:07.098Z,99403
2018-01-22T12:20:07.278Z,99402
2018-01-22T12:21:07.287Z,99410
2018-01-22T12:22:07.372Z,99404
2018-01-22T12:23:07.429Z,99395
2018-01-22T12:24:07.395Z,99399
2018-01-22T12:25:07.624Z,99402
2018-01-22T12:26:07.682Z,99402
2018-01-22T12:27:07.630Z,99405
2018-01-22T12:28:07.692Z,99398
2018-01-22T12:29:07.639Z,99405
2018-01-22T12:30:08.609Z,99404
2018-01-22T12:31:08.757Z,99417
2018-01-22T12:32:07.764Z,99418
2018-01-22T12:33:07.938Z,99422
2018-01-22T12:34:07.928Z,99422
2018-01-22T12:35:07.923Z,99427
2018-01-22T12:36:09.910Z,99420
2018-01-22T12:37:08.106Z,99433
2018-01-22T12:38:09.326Z,99433
2018-01-22T12:39:09.309Z,99429
2018-01-22T12:40:08.283Z,99432
2018-01-22T12:41:09.380Z,99435
2018-01-22T12:42:09.371Z,99442
2018-01-22T12:43:08.460Z,99438
2018-01-22T12:44:08.463Z,99434
2018-01-22T12:45:08.636Z,99431
2018-01-22T12:46:08.652Z,99442
2018-01-22T12:47:08.674Z,99440
2018-01-22T12:48:08.626Z,99447
2018-01-22T12:49:09.171Z,99450
2018-01-22T12:50:10.103Z,99450
2018-01-22T12:51:08.856Z,99453
2018-01-22T12:52:09.498Z,99453
2018-01-22T12:53:09.768Z,99453
2018-01-22T12:54:08.948Z,99459
2018-01-22T12:55:08.968Z,99458
2018-01-22T12:56:08.997Z,99455
2018-01-22T12:57:09.950Z,99459
2018-01-22T12:58:10.208Z,99462
2018-01-22T12:59:10.477Z,99467
2018-01-22T13:00:10.518Z,99466
2018-01-22T13:01:09.171Z,99467